createdAt,value
2018-04-09T00:00:30.942Z,11.37
2018-04-09T00:01:31.086Z,11.41
2018-04-09T00:03:31.440Z,11.41
2018-04-09T00:04:31.619Z,11.26
2018-04-09T00:05:31.807Z,11.36
2018-04-09T00:06:32.009Z,11.30
2018-04-09T00:07:32.142Z,11.22
2018-04-09T00:08:32.338Z,11.30
2018-04-09T00:09:32.495Z,11.26
2018-04-09T00:10:32.703Z,11.29
2018-04-09T00:11:32.827Z,11.30
2018-04-09T00:12:33.009Z,11.22
2018-04-09T00:13:33.175Z,11.25
2018-04-09T00:14:33.349Z,11.23
2018-04-09T00:16:33.674Z,11.23
2018-04-09T00:17:33.828Z,11.23
2018-04-09T00:18:33.991Z,11.17
2018-04-09T00:19:34.162Z,11.32
2018-04-09T00:20:34.356Z,11.26
2018-04-09T00:21:34.525Z,11.15
2018-04-09T00:22:34.689Z,11.11
2018-04-09T00:23:34.878Z,11.10
2018-04-09T00:24:35.020Z,10.97
2018-04-09T00:26:35.369Z,10.96
2018-04-09T00:27:35.538Z,10.93
2018-04-09T00:28:35.738Z,10.94
2018-04-09T00:29:35.864Z,10.86
2018-04-09T00:30:36.040Z,10.81
2018-04-09T00:31:36.202Z,10.84
2018-04-09T00:32:36.365Z,10.92
2018-04-09T00:33:36.533Z,10.82
2018-04-09T00:34:36.699Z,10.84
2018-04-09T00:35:36.869Z,10.84
2018-04-09T00:36:37.042Z,10.78
2018-04-09T00:37:37.236Z,10.79
2018-04-09T00:38:37.426Z,10.82
2018-04-09T00:39:37.558Z,10.82
2018-04-09T00:40:37.737Z,10.74
2018-04-09T00:41:37.905Z,10.69
2018-04-09T00:42:38.115Z,10.69
2018-04-09T00:43:38.245Z,10.67
2018-04-09T00:44:38.420Z,10.71
2018-04-09T00:45:38.611Z,10.71
2018-04-09T00:46:38.783Z,10.81
2018-04-09T00:47:38.950Z,10.76
2018-04-09T00:48:39.140Z,10.72
2018-04-09T00:49:39.303Z,10.76
2018-04-09T00:50:39.496Z,10.84
2018-04-09T00:51:39.684Z,10.74
2018-04-09T00:52:39.827Z,10.71
2018-04-09T00:53:39.987Z,10.68
2018-04-09T00:54:40.161Z,10.71
2018-04-09T00:55:40.341Z,10.67
2018-04-09T00:56:40.494Z,10.63
2018-04-09T00:57:40.663Z,10.64
2018-04-09T00:58:40.861Z,10.63
2018-04-09T00:59:41.000Z,10.68
2018-04-09T01:00:41.178Z,10.71
2018-04-09T01:02:41.508Z,10.69
2018-04-09T01:03:41.676Z,10.78
2018-04-09T01:04:41.864Z,10.75
2018-04-09T01:05:41.997Z,10.69
2018-04-09T01:06:42.167Z,10.63
2018-04-09T01:07:42.334Z,10.72
2018-04-09T01:08:42.510Z,10.74
2018-04-09T01:09:42.685Z,10.75
2018-04-09T01:10:42.847Z,10.68
2018-04-09T01:11:43.002Z,10.67
2018-04-09T01:12:43.167Z,10.67
2018-04-09T01:13:43.323Z,10.64
2018-04-09T01:15:43.661Z,10.59
2018-04-09T01:16:43.841Z,10.46
2018-04-09T01:17:44.001Z,10.53
2018-04-09T01:18:44.188Z,10.54
2018-04-09T01:19:44.332Z,10.53
2018-04-09T01:20:44.496Z,10.53
2018-04-09T01:21:44.694Z,10.48
2018-04-09T01:22:44.830Z,10.44
2018-04-09T01:23:45.020Z,10.53
2018-04-09T01:24:45.194Z,10.53
2018-04-09T01:25:45.341Z,10.57
2018-04-09T01:26:45.532Z,10.56
2018-04-09T01:27:46.063Z,10.53
2018-04-09T01:28:45.885Z,10.56
2018-04-09T01:29:46.067Z,10.60
2018-04-09T01:30:46.254Z,10.63
2018-04-09T01:31:46.383Z,10.44
2018-04-09T01:32:46.544Z,10.46
2018-04-09T01:33:46.725Z,10.49
2018-04-09T01:34:46.909Z,10.56
2018-04-09T01:35:47.068Z,10.34
2018-04-09T01:36:47.266Z,10.37
2018-04-09T01:37:47.435Z,10.31
2018-04-09T01:38:47.593Z,10.34
2018-04-09T01:39:47.773Z,10.26
2018-04-09T01:40:47.936Z,10.23
2018-04-09T01:41:48.103Z,10.20
2018-04-09T01:42:48.272Z,10.20
2018-04-09T01:43:48.451Z,10.23
2018-04-09T01:44:48.663Z,10.09
2018-04-09T01:45:48.795Z,10.26
2018-04-09T01:46:48.968Z,10.17
2018-04-09T01:47:49.471Z,10.19
2018-04-09T01:48:49.315Z,10.23
2018-04-09T01:49:49.473Z,10.26
2018-04-09T01:51:49.822Z,10.26
2018-04-09T01:52:50.003Z,10.22
2018-04-09T01:53:50.172Z,10.17
2018-04-09T01:54:50.359Z,10.12
2018-04-09T01:55:50.535Z,10.07
2018-04-09T01:56:50.716Z,10.07
2018-04-09T01:57:50.891Z,10.05
2018-04-09T01:58:51.064Z,10.13
2018-04-09T01:59:51.241Z,9.97
2018-04-09T02:00:51.406Z,9.91
2018-04-09T02:01:51.597Z,9.95
2018-04-09T02:02:51.766Z,9.83
2018-04-09T02:03:51.940Z,9.92
2018-04-09T02:04:52.129Z,9.87
2018-04-09T02:05:52.302Z,9.89
2018-04-09T02:06:52.473Z,9.95
2018-04-09T02:07:52.651Z,9.89
2018-04-09T02:08:52.832Z,9.98
2018-04-09T02:09:53.010Z,9.97
2018-04-09T02:10:53.190Z,9.95
2018-04-09T02:11:53.365Z,9.98
2018-04-09T02:12:53.540Z,10.01
2018-04-09T02:13:53.719Z,10.10
2018-04-09T02:14:53.897Z,10.05
2018-04-09T02:15:54.080Z,10.05
2018-04-09T02:16:54.298Z,10.02
2018-04-09T02:17:54.439Z,10.07
2018-04-09T02:18:54.607Z,10.12
2018-04-09T02:19:54.787Z,10.07
2018-04-09T02:20:54.960Z,10.15
2018-04-09T02:21:55.140Z,10.15
2018-04-09T02:22:55.314Z,10.12
2018-04-09T02:23:55.492Z,10.20
2018-04-09T02:24:55.670Z,10.16
2018-04-09T02:25:55.854Z,10.26
2018-04-09T02:26:56.020Z,10.10
2018-04-09T02:27:56.201Z,10.13
2018-04-09T02:28:56.383Z,9.98
2018-04-09T02:29:56.553Z,9.82
2018-04-09T02:30:56.735Z,9.73
2018-04-09T02:31:56.925Z,9.68
2018-04-09T02:32:57.100Z,9.68
2018-04-09T02:33:57.318Z,9.65
2018-04-09T02:34:57.452Z,9.65
2018-04-09T02:35:57.624Z,9.72
2018-04-09T02:36:57.799Z,9.77
2018-04-09T02:37:57.978Z,9.83
2018-04-09T02:38:58.166Z,9.83
2018-04-09T02:39:58.337Z,9.66
2018-04-09T02:40:58.512Z,9.68
2018-04-09T02:41:58.689Z,9.68
2018-04-09T02:42:58.865Z,9.62
2018-04-09T02:43:59.053Z,9.73
2018-04-09T02:44:59.223Z,9.69
2018-04-09T02:45:59.422Z,9.64
2018-04-09T02:46:59.568Z,9.59
2018-04-09T02:47:59.746Z,9.56
2018-04-09T02:48:59.944Z,9.62
2018-04-09T02:50:00.102Z,9.62
2018-04-09T02:51:00.273Z,9.58
2018-04-09T02:52:00.467Z,9.72
2018-04-09T02:54:00.810Z,9.80
2018-04-09T02:55:00.983Z,9.79
2018-04-09T02:56:01.173Z,9.72
2018-04-09T02:57:01.342Z,9.69
2018-04-09T02:58:01.529Z,9.59
2018-04-09T02:59:01.704Z,9.69
2018-04-09T03:00:01.873Z,9.65
2018-04-09T03:01:02.054Z,9.59
2018-04-09T03:02:02.248Z,9.59
2018-04-09T03:03:02.430Z,9.62
2018-04-09T03:04:02.564Z,9.58
2018-04-09T03:05:02.751Z,9.48
2018-04-09T03:06:02.922Z,9.59
2018-04-09T03:07:03.097Z,9.50
2018-04-09T03:08:03.516Z,9.37
2018-04-09T03:09:03.450Z,9.10
2018-04-09T03:10:03.622Z,8.97
2018-04-09T03:11:03.796Z,8.97
2018-04-09T03:12:03.977Z,9.10
2018-04-09T03:13:04.157Z,9.13
2018-04-09T03:14:04.334Z,9.19
2018-04-09T03:15:04.517Z,9.14
2018-04-09T03:16:04.684Z,9.10
2018-04-09T03:17:04.870Z,9.18
2018-04-09T03:18:05.073Z,8.89
2018-04-09T03:19:05.252Z,8.91
2018-04-09T03:20:05.436Z,9.00
2018-04-09T03:21:05.597Z,8.85
2018-04-09T03:22:05.778Z,8.95
2018-04-09T03:23:05.958Z,8.99
2018-04-09T03:24:06.133Z,8.88
2018-04-09T03:25:06.318Z,8.99
2018-04-09T03:26:06.483Z,9.14
2018-04-09T03:27:06.669Z,9.00
2018-04-09T03:28:06.838Z,8.95
2018-04-09T03:29:07.019Z,9.06
2018-04-09T03:30:07.200Z,8.97
2018-04-09T03:31:07.375Z,9.02
2018-04-09T03:32:07.564Z,8.99
2018-04-09T03:33:07.730Z,9.03
2018-04-09T03:34:07.909Z,8.91
2018-04-09T03:35:08.086Z,8.88
2018-04-09T03:36:08.255Z,8.95
2018-04-09T03:37:08.434Z,8.91
2018-04-09T03:38:08.619Z,8.92
2018-04-09T03:39:08.786Z,8.95
2018-04-09T03:40:08.955Z,8.84
2018-04-09T03:41:09.120Z,8.91
2018-04-09T03:42:09.322Z,8.84
2018-04-09T03:43:09.499Z,8.91
2018-04-09T03:44:09.675Z,8.84
2018-04-09T03:45:09.854Z,8.81
2018-04-09T03:46:10.034Z,8.79
2018-04-09T03:47:10.224Z,8.81
2018-04-09T03:48:10.385Z,8.88
2018-04-09T03:49:10.567Z,8.84
2018-04-09T03:50:10.739Z,8.85
2018-04-09T03:51:10.920Z,8.89
2018-04-09T03:52:11.102Z,8.89
2018-04-09T03:53:11.276Z,8.99
2018-04-09T03:54:11.460Z,8.97
2018-04-09T03:56:11.793Z,8.87
2018-04-09T03:57:11.967Z,8.99
2018-04-09T03:58:12.153Z,8.89
2018-04-09T03:59:12.324Z,8.92
2018-04-09T04:00:12.499Z,8.99
2018-04-09T04:01:12.680Z,8.92
2018-04-09T04:02:13.209Z,8.88
2018-04-09T04:03:13.033Z,8.85
2018-04-09T04:04:13.211Z,8.87
2018-04-09T04:06:13.563Z,8.84
2018-04-09T04:07:13.735Z,8.89
2018-04-09T04:08:13.923Z,8.88
2018-04-09T04:09:14.097Z,8.89
2018-04-09T04:10:14.277Z,8.84
2018-04-09T04:11:14.454Z,8.79
2018-04-09T04:12:14.632Z,8.61
2018-04-09T04:13:14.813Z,8.60
2018-04-09T04:14:14.986Z,8.58
2018-04-09T04:15:15.169Z,8.58
2018-04-09T04:16:15.349Z,8.60
2018-04-09T04:17:15.527Z,8.56
2018-04-09T04:18:15.695Z,8.52
2018-04-09T04:19:15.876Z,8.56
2018-04-09T04:20:16.039Z,8.56
2018-04-09T04:21:16.223Z,8.55
2018-04-09T04:22:16.395Z,8.58
2018-04-09T04:23:16.588Z,8.51
2018-04-09T04:24:16.754Z,8.49
2018-04-09T04:25:16.938Z,8.48
2018-04-09T04:26:17.108Z,8.52
2018-04-09T04:27:17.297Z,8.56
2018-04-09T04:28:17.460Z,8.56
2018-04-09T04:29:17.639Z,8.69
2018-04-09T04:30:17.810Z,8.66
2018-04-09T04:31:17.986Z,8.61
2018-04-09T04:32:18.182Z,8.53
2018-04-09T04:33:18.345Z,8.60
2018-04-09T04:34:18.520Z,8.45
2018-04-09T04:35:18.696Z,8.51
2018-04-09T04:36:18.876Z,8.56
2018-04-09T04:37:19.056Z,8.52
2018-04-09T04:38:19.242Z,8.63
2018-04-09T04:39:19.443Z,8.64
2018-04-09T04:40:19.613Z,8.67
2018-04-09T04:41:19.782Z,8.66
2018-04-09T04:42:19.960Z,8.67
2018-04-09T04:43:20.140Z,8.64
2018-04-09T04:44:20.315Z,8.67
2018-04-09T04:45:20.543Z,8.64
2018-04-09T04:46:20.678Z,8.60
2018-04-09T04:47:20.856Z,8.67
2018-04-09T04:48:21.034Z,8.66
2018-04-09T04:49:21.221Z,8.69
2018-04-09T04:50:21.394Z,8.69
2018-04-09T04:51:21.579Z,8.60
2018-04-09T04:53:21.925Z,8.60
2018-04-09T04:54:22.100Z,8.48
2018-04-09T04:55:22.282Z,8.55
2018-04-09T04:56:22.462Z,8.45
2018-04-09T04:57:22.630Z,8.52
2018-04-09T04:58:22.788Z,8.51
2018-04-09T04:59:22.964Z,8.58
2018-04-09T05:00:23.138Z,8.71
2018-04-09T05:01:23.320Z,8.63
2018-04-09T05:02:23.520Z,8.66
2018-04-09T05:03:23.698Z,8.69
2018-04-09T05:04:23.854Z,8.82
2018-04-09T05:05:24.051Z,8.82
2018-04-09T05:06:24.209Z,8.79
2018-04-09T05:07:24.388Z,8.74
2018-04-09T05:08:24.567Z,8.82
2018-04-09T05:09:24.748Z,8.82
2018-04-09T05:10:24.925Z,8.67
2018-04-09T05:11:25.106Z,8.56
2018-04-09T05:12:25.282Z,8.63
2018-04-09T05:13:25.461Z,8.63
2018-04-09T05:14:25.639Z,8.74
2018-04-09T05:15:25.818Z,8.79
2018-04-09T05:16:25.997Z,8.74
2018-04-09T05:17:26.175Z,8.84
2018-04-09T05:18:26.354Z,8.81
2018-04-09T05:19:26.533Z,8.78
2018-04-09T05:20:26.712Z,8.87
2018-04-09T05:21:26.890Z,8.95
2018-04-09T05:22:27.074Z,8.99
2018-04-09T05:23:27.268Z,9.18
2018-04-09T05:24:27.441Z,9.14
2018-04-09T05:25:27.576Z,9.19
2018-04-09T05:26:27.757Z,9.03
2018-04-09T05:27:27.935Z,8.92
2018-04-09T05:28:28.112Z,8.91
2018-04-09T05:29:28.292Z,9.10
2018-04-09T05:30:28.473Z,9.14
2018-04-09T05:31:28.648Z,9.28
2018-04-09T05:32:28.822Z,9.39
2018-04-09T05:33:29.002Z,9.34
2018-04-09T05:34:29.170Z,9.44
2018-04-09T05:35:29.369Z,9.43
2018-04-09T05:36:29.532Z,9.41
2018-04-09T05:37:29.714Z,9.25
2018-04-09T05:38:29.901Z,8.87
2018-04-09T05:39:30.079Z,8.89
2018-04-09T05:40:30.258Z,8.71
2018-04-09T05:41:30.450Z,8.53
2018-04-09T05:42:30.616Z,8.92
2018-04-09T05:43:30.799Z,9.11
2018-04-09T05:44:30.976Z,9.32
2018-04-09T05:45:31.157Z,9.74
2018-04-09T05:46:31.422Z,9.92
2018-04-09T05:47:31.514Z,10.04
2018-04-09T05:48:31.692Z,10.37
2018-04-09T05:49:31.887Z,10.33
2018-04-09T05:50:32.052Z,10.48
2018-04-09T05:51:32.243Z,10.60
2018-04-09T05:52:32.413Z,10.63
2018-04-09T05:53:32.593Z,10.56
2018-04-09T05:54:32.778Z,10.44
2018-04-09T05:55:32.973Z,10.49
2018-04-09T05:56:33.140Z,10.64
2018-04-09T05:57:33.328Z,10.78
2018-04-09T05:58:33.509Z,10.53
2018-04-09T05:59:33.682Z,10.48
2018-04-09T06:00:33.849Z,10.34
2018-04-09T06:01:34.046Z,10.53
2018-04-09T06:02:34.215Z,10.61
2018-04-09T06:03:34.391Z,10.57
2018-04-09T06:04:34.579Z,10.54
2018-04-09T06:05:34.782Z,10.89
2018-04-09T06:06:34.928Z,11.14
2018-04-09T06:07:35.105Z,11.41
2018-04-09T06:08:35.290Z,11.26
2018-04-09T06:09:35.470Z,11.22
2018-04-09T06:10:35.649Z,11.52
2018-04-09T06:11:35.833Z,11.65
2018-04-09T06:12:36.014Z,11.86
2018-04-09T06:13:36.200Z,12.17
2018-04-09T06:14:36.378Z,12.43
2018-04-09T06:15:36.561Z,12.64
2018-04-09T06:16:36.739Z,12.91
2018-04-09T06:17:36.919Z,13.11
2018-04-09T06:18:37.103Z,12.49
2018-04-09T06:19:37.291Z,12.06
2018-04-09T06:20:37.710Z,12.40
2018-04-09T06:21:37.650Z,12.73
2018-04-09T06:22:37.843Z,12.54
2018-04-09T06:23:38.011Z,13.04
2018-04-09T06:24:38.204Z,13.20
2018-04-09T06:25:38.377Z,13.22
2018-04-09T06:26:38.564Z,13.59
2018-04-09T06:27:38.745Z,13.68
2018-04-09T06:28:38.940Z,13.90
2018-04-09T06:29:39.114Z,14.35
2018-04-09T06:30:39.302Z,14.51
2018-04-09T06:31:39.524Z,14.35
2018-04-09T06:32:39.662Z,14.69
2018-04-09T06:33:39.844Z,14.81
2018-04-09T06:34:40.034Z,14.55
2018-04-09T06:35:40.215Z,14.30
2018-04-09T06:36:40.401Z,14.53
2018-04-09T06:37:40.583Z,14.70
2018-04-09T06:38:40.778Z,14.40
2018-04-09T06:39:40.949Z,14.69
2018-04-09T06:40:41.139Z,14.88
2018-04-09T06:41:41.327Z,15.17
2018-04-09T06:42:41.517Z,15.10
2018-04-09T06:43:41.693Z,15.18
2018-04-09T06:44:42.110Z,15.52
2018-04-09T06:45:42.045Z,15.37
2018-04-09T06:46:42.227Z,15.42
2018-04-09T06:47:42.408Z,15.68
2018-04-09T06:48:42.606Z,15.57
2018-04-09T06:49:42.785Z,15.57
2018-04-09T06:50:43.028Z,15.82
2018-04-09T06:51:43.154Z,16.15
2018-04-09T06:52:43.338Z,16.23
2018-04-09T06:53:43.531Z,15.76
2018-04-09T06:55:43.928Z,15.06
2018-04-09T06:56:44.072Z,15.18
2018-04-09T06:57:44.256Z,15.42
2018-04-09T06:58:44.458Z,15.59
2018-04-09T06:59:44.629Z,15.88
2018-04-09T07:00:44.808Z,15.86
2018-04-09T07:01:45.315Z,15.86
2018-04-09T07:02:45.171Z,16.20
2018-04-09T07:03:45.396Z,15.68
2018-04-09T07:05:45.713Z,16.68
2018-04-09T07:06:45.915Z,15.62
2018-04-09T07:07:46.081Z,15.24
2018-04-09T07:08:46.263Z,15.73
2018-04-09T07:09:46.452Z,16.13
2018-04-09T07:10:46.641Z,16.02
2018-04-09T07:11:46.820Z,15.86
2018-04-09T07:12:47.009Z,16.01
2018-04-09T07:13:47.193Z,16.51
2018-04-09T07:14:47.388Z,16.81
2018-04-09T07:15:47.602Z,16.81
2018-04-09T07:16:47.760Z,16.60
2018-04-09T07:17:47.944Z,16.60
2018-04-09T07:18:48.126Z,16.75
2018-04-09T07:19:48.316Z,16.74
2018-04-09T07:20:48.501Z,16.84
2018-04-09T07:21:48.705Z,17.38
2018-04-09T07:22:48.871Z,17.87
2018-04-09T07:23:49.055Z,18.00
2018-04-09T07:24:49.244Z,17.97
2018-04-09T07:25:49.431Z,17.78
2018-04-09T07:26:49.614Z,17.15
2018-04-09T07:27:49.801Z,17.19
2018-04-09T07:28:49.989Z,17.16
2018-04-09T07:29:50.193Z,16.75
2018-04-09T07:30:50.358Z,16.97
2018-04-09T07:31:50.545Z,17.11
2018-04-09T07:32:50.730Z,16.96
2018-04-09T07:33:50.929Z,16.83
2018-04-09T07:34:51.125Z,17.02
2018-04-09T07:35:51.307Z,17.11
2018-04-09T07:36:51.493Z,17.04
2018-04-09T07:37:51.677Z,17.05
2018-04-09T07:38:51.923Z,16.68
2018-04-09T07:39:52.041Z,16.54
2018-04-09T07:40:52.230Z,15.73
2018-04-09T07:41:52.418Z,15.18
2018-04-09T07:42:52.626Z,15.09
2018-04-09T07:43:52.764Z,15.04
2018-04-09T07:44:52.959Z,15.40
2018-04-09T07:45:53.144Z,15.70
2018-04-09T07:46:53.313Z,16.42
2018-04-09T07:47:53.509Z,16.61
2018-04-09T07:48:53.691Z,16.31
2018-04-09T07:49:53.868Z,16.72
2018-04-09T07:50:54.054Z,17.09
2018-04-09T07:51:54.231Z,17.15
2018-04-09T07:52:54.416Z,17.11
2018-04-09T07:53:54.626Z,17.15
2018-04-09T07:54:54.794Z,16.84
2018-04-09T07:55:54.982Z,16.91
2018-04-09T07:56:55.167Z,17.11
2018-04-09T07:57:55.368Z,17.22
2018-04-09T07:58:55.538Z,17.44
2018-04-09T07:59:55.730Z,17.49
2018-04-09T08:00:55.898Z,17.68
2018-04-09T08:01:56.093Z,17.63
2018-04-09T08:02:56.282Z,17.64
2018-04-09T08:03:56.469Z,17.82
2018-04-09T08:04:56.658Z,17.39
2018-04-09T08:05:56.826Z,17.36
2018-04-09T08:06:57.009Z,17.34
2018-04-09T08:07:57.188Z,17.45
2018-04-09T08:08:57.376Z,17.36
2018-04-09T08:09:57.560Z,17.36
2018-04-09T08:10:57.987Z,17.48
2018-04-09T08:11:57.939Z,17.33
2018-04-09T08:12:58.110Z,17.36
2018-04-09T08:13:58.301Z,17.60
2018-04-09T08:14:58.466Z,17.52
2018-04-09T08:15:58.652Z,17.59
2018-04-09T08:16:58.833Z,17.63
2018-04-09T08:17:59.016Z,17.65
2018-04-09T08:18:59.201Z,17.59
2018-04-09T08:19:59.380Z,17.48
2018-04-09T08:21:59.751Z,17.51
2018-04-09T08:22:59.928Z,16.72
2018-04-09T08:24:00.126Z,17.02
2018-04-09T08:25:00.340Z,16.81
2018-04-09T08:26:00.465Z,16.99
2018-04-09T08:27:00.655Z,16.83
2018-04-09T08:28:00.844Z,16.87
2018-04-09T08:29:01.021Z,16.94
2018-04-09T08:30:01.210Z,17.14
2018-04-09T08:31:01.396Z,17.49
2018-04-09T08:32:01.570Z,17.76
2018-04-09T08:33:02.479Z,17.82
2018-04-09T08:34:01.962Z,17.94
2018-04-09T08:35:02.095Z,17.98
2018-04-09T08:36:02.255Z,17.98
2018-04-09T08:37:02.453Z,17.97
2018-04-09T08:38:02.608Z,17.86
2018-04-09T08:39:02.783Z,18.10
2018-04-09T08:40:02.969Z,18.52
2018-04-09T08:41:03.145Z,18.63
2018-04-09T08:42:03.333Z,18.71
2018-04-09T08:43:03.508Z,18.96
2018-04-09T08:44:03.683Z,18.84
2018-04-09T08:45:03.878Z,18.95
2018-04-09T08:46:04.048Z,19.19
2018-04-09T08:47:04.224Z,18.98
2018-04-09T08:48:04.403Z,18.28
2018-04-09T08:49:04.586Z,18.52
2018-04-09T08:50:04.754Z,18.70
2018-04-09T08:51:04.923Z,18.59
2018-04-09T08:52:05.097Z,18.11
2018-04-09T08:53:05.265Z,18.40
2018-04-09T08:54:05.449Z,18.84
2018-04-09T08:55:05.636Z,18.73
2018-04-09T08:56:05.808Z,19.21
2018-04-09T08:57:05.985Z,19.40
2018-04-09T08:58:06.154Z,18.74
2018-04-09T08:59:06.335Z,18.15
2018-04-09T09:00:06.512Z,18.23
2018-04-09T09:01:06.702Z,18.19
2018-04-09T09:02:06.901Z,18.04
2018-04-09T09:03:07.063Z,18.31
2018-04-09T09:04:07.240Z,18.33
2018-04-09T09:05:07.417Z,18.44
2018-04-09T09:06:07.579Z,18.55
2018-04-09T09:07:07.764Z,18.68
2018-04-09T09:08:08.008Z,18.63
2018-04-09T09:09:08.104Z,18.71
2018-04-09T09:10:08.289Z,18.68
2018-04-09T09:11:08.452Z,18.58
2018-04-09T09:12:08.659Z,18.58
2018-04-09T09:13:08.806Z,18.65
2018-04-09T09:14:09.609Z,18.73
2018-04-09T09:15:09.117Z,18.63
2018-04-09T09:16:09.273Z,18.63
2018-04-09T09:17:09.431Z,18.81
2018-04-09T09:18:09.606Z,18.96
2018-04-09T09:19:09.774Z,19.24
2018-04-09T09:20:09.969Z,19.45
2018-04-09T09:21:10.126Z,19.62
2018-04-09T09:22:10.313Z,19.89
2018-04-09T09:23:10.477Z,20.24
2018-04-09T09:24:10.669Z,20.39
2018-04-09T09:25:10.837Z,20.74
2018-04-09T09:26:11.025Z,20.70
2018-04-09T09:27:11.196Z,20.72
2018-04-09T09:28:11.399Z,20.96
2018-04-09T09:29:11.539Z,20.75
2018-04-09T09:30:11.720Z,20.77
2018-04-09T09:31:11.916Z,20.88
2018-04-09T09:32:12.147Z,20.95
2018-04-09T09:33:12.265Z,21.07
2018-04-09T09:34:12.462Z,21.27
2018-04-09T09:35:12.617Z,21.20
2018-04-09T09:36:12.798Z,21.33
2018-04-09T09:37:12.974Z,21.62
2018-04-09T09:38:13.190Z,21.64
2018-04-09T09:39:13.328Z,21.98
2018-04-09T09:40:13.534Z,22.22
2018-04-09T09:41:13.721Z,21.91
2018-04-09T09:42:13.923Z,21.72
2018-04-09T09:43:14.103Z,21.21
2018-04-09T09:44:14.271Z,20.90
2018-04-09T09:45:14.409Z,20.62
2018-04-09T09:46:14.578Z,20.72
2018-04-09T09:47:14.777Z,21.03
2018-04-09T09:48:14.946Z,21.07
2018-04-09T09:49:15.138Z,20.95
2018-04-09T09:50:15.279Z,20.82
2018-04-09T09:51:15.456Z,20.90
2018-04-09T09:52:15.645Z,20.78
2018-04-09T09:53:15.790Z,20.81
2018-04-09T09:54:15.978Z,20.65
2018-04-09T09:55:16.158Z,20.74
2018-04-09T09:56:16.333Z,20.80
2018-04-09T09:57:16.511Z,21.14
2018-04-09T09:58:16.708Z,21.29
2018-04-09T09:59:16.882Z,21.27
2018-04-09T10:00:17.143Z,21.50
2018-04-09T10:01:17.252Z,21.66
2018-04-09T10:02:17.436Z,21.95
2018-04-09T10:03:17.593Z,21.75
2018-04-09T10:04:17.766Z,22.10
2018-04-09T10:05:18.205Z,22.11
2018-04-09T10:06:18.134Z,22.10
2018-04-09T10:07:18.345Z,22.10
2018-04-09T10:08:18.492Z,22.38
2018-04-09T10:09:18.710Z,22.44
2018-04-09T10:10:18.850Z,22.39
2018-04-09T10:11:19.009Z,21.45
2018-04-09T10:12:19.207Z,21.21
2018-04-09T10:13:19.374Z,21.11
2018-04-09T10:14:19.550Z,21.07
2018-04-09T10:15:19.947Z,21.36
2018-04-09T10:16:19.874Z,21.39
2018-04-09T10:17:20.070Z,21.48
2018-04-09T10:18:20.220Z,21.06
2018-04-09T10:19:20.400Z,21.22
2018-04-09T10:20:20.571Z,21.20
2018-04-09T10:21:20.756Z,21.21
2018-04-09T10:22:20.937Z,21.11
2018-04-09T10:23:21.124Z,20.77
2018-04-09T10:24:21.300Z,20.96
2018-04-09T10:25:21.723Z,21.05
2018-04-09T10:26:21.712Z,20.92
2018-04-09T10:27:21.853Z,20.21
2018-04-09T10:28:22.043Z,20.13
2018-04-09T10:29:22.204Z,20.34
2018-04-09T10:30:22.349Z,20.47
2018-04-09T10:31:22.529Z,20.77
2018-04-09T10:32:22.720Z,20.78
2018-04-09T10:33:22.904Z,21.11
2018-04-09T10:34:23.064Z,21.37
2018-04-09T10:35:23.239Z,21.58
2018-04-09T10:36:23.412Z,21.58
2018-04-09T10:37:23.594Z,21.25
2018-04-09T10:38:23.781Z,21.67
2018-04-09T10:39:23.965Z,21.98
2018-04-09T10:40:24.151Z,22.39
2018-04-09T10:41:24.364Z,21.99
2018-04-09T10:42:24.514Z,22.13
2018-04-09T10:43:24.678Z,22.26
2018-04-09T10:44:24.879Z,22.45
2018-04-09T10:45:25.058Z,22.48
2018-04-09T10:46:25.231Z,22.76
2018-04-09T10:47:25.399Z,22.90
2018-04-09T10:48:25.585Z,22.84
2018-04-09T10:49:25.801Z,22.65
2018-04-09T10:50:25.944Z,22.08
2018-04-09T10:51:26.130Z,22.25
2018-04-09T10:52:26.297Z,22.18
2018-04-09T10:53:26.483Z,22.11
2018-04-09T10:54:26.664Z,22.23
2018-04-09T10:55:26.835Z,22.43
2018-04-09T10:56:27.020Z,22.43
2018-04-09T10:57:27.360Z,22.47
2018-04-09T10:58:27.396Z,22.63
2018-04-09T10:59:27.581Z,22.55
2018-04-09T11:00:27.754Z,22.33
2018-04-09T11:01:27.919Z,22.29
2018-04-09T11:02:28.096Z,22.43
2018-04-09T11:03:28.285Z,22.68
2018-04-09T11:04:28.486Z,22.73
2018-04-09T11:05:28.626Z,22.78
2018-04-09T11:06:28.803Z,23.09
2018-04-09T11:07:29.012Z,23.06
2018-04-09T11:08:29.155Z,23.17
2018-04-09T11:09:29.603Z,23.44
2018-04-09T11:10:29.530Z,22.84
2018-04-09T11:11:29.707Z,23.05
2018-04-09T11:12:29.941Z,22.94
2018-04-09T11:13:30.063Z,22.68
2018-04-09T11:14:30.294Z,22.78
2018-04-09T11:15:30.565Z,22.96
2018-04-09T11:16:30.658Z,22.94
2018-04-09T11:17:30.839Z,23.08
2018-04-09T11:18:31.013Z,23.12
2018-04-09T11:19:31.173Z,23.18
2018-04-09T11:20:31.349Z,22.76
2018-04-09T11:21:31.512Z,22.76
2018-04-09T11:22:32.538Z,22.80
2018-04-09T11:23:31.882Z,22.75
2018-04-09T11:24:32.121Z,22.78
2018-04-09T11:25:32.301Z,22.76
2018-04-09T11:26:32.484Z,22.87
2018-04-09T11:27:32.668Z,22.96
2018-04-09T11:28:32.842Z,23.00
2018-04-09T11:29:32.988Z,22.99
2018-04-09T11:30:33.205Z,22.85
2018-04-09T11:31:34.043Z,22.98
2018-04-09T11:32:33.538Z,23.00
2018-04-09T11:33:33.735Z,23.10
2018-04-09T11:34:33.873Z,23.23
2018-04-09T11:35:34.048Z,23.34
2018-04-09T11:36:34.279Z,23.47
2018-04-09T11:37:34.491Z,23.44
2018-04-09T11:38:34.699Z,23.54
2018-04-09T11:39:34.767Z,23.74
2018-04-09T11:40:34.949Z,23.71
2018-04-09T11:41:35.142Z,23.39
2018-04-09T11:42:35.578Z,22.96
2018-04-09T11:43:35.543Z,23.03
2018-04-09T11:44:35.725Z,22.90
2018-04-09T11:45:35.881Z,22.88
2018-04-09T11:46:36.083Z,22.99
2018-04-09T11:47:36.265Z,23.12
2018-04-09T11:48:36.433Z,23.21
2018-04-09T11:49:36.626Z,23.08
2018-04-09T11:50:36.788Z,23.12
2018-04-09T11:51:36.974Z,23.34
2018-04-09T11:52:37.235Z,23.39
2018-04-09T11:53:37.557Z,23.34
2018-04-09T11:54:37.470Z,23.37
2018-04-09T11:55:37.647Z,23.28
2018-04-09T11:56:37.817Z,23.13
2018-04-09T11:57:38.002Z,23.43
2018-04-09T11:58:38.178Z,23.43
2018-04-09T11:59:38.379Z,23.55
2018-04-09T12:00:38.552Z,23.58
2018-04-09T12:01:39.012Z,23.50
2018-04-09T12:02:38.911Z,23.48
2018-04-09T12:03:39.113Z,23.69
2018-04-09T12:04:39.281Z,23.66
2018-04-09T12:05:39.461Z,23.58
2018-04-09T12:06:39.700Z,23.51
2018-04-09T12:07:39.788Z,23.58
2018-04-09T12:08:39.982Z,23.34
2018-04-09T12:09:40.164Z,23.34
2018-04-09T12:10:40.332Z,23.34
2018-04-09T12:11:40.509Z,22.91
2018-04-09T12:12:40.682Z,23.08
2018-04-09T12:13:40.882Z,23.03
2018-04-09T12:14:41.059Z,22.36
2018-04-09T12:15:41.245Z,22.55
2018-04-09T12:16:41.429Z,22.72
2018-04-09T12:17:41.583Z,22.83
2018-04-09T12:18:41.771Z,22.99
2018-04-09T12:19:41.964Z,23.15
2018-04-09T12:20:42.101Z,23.24
2018-04-09T12:21:42.267Z,23.32
2018-04-09T12:22:42.482Z,23.43
2018-04-09T12:23:42.661Z,23.46
2018-04-09T12:24:42.807Z,23.40
2018-04-09T12:25:43.005Z,22.93
2018-04-09T12:26:43.183Z,22.78
2018-04-09T12:27:43.355Z,23.05
2018-04-09T12:28:43.554Z,23.36
2018-04-09T12:29:43.743Z,22.80
2018-04-09T12:30:43.915Z,22.94
2018-04-09T12:31:44.053Z,22.96
2018-04-09T12:32:44.229Z,22.96
2018-04-09T12:33:44.426Z,22.98
2018-04-09T12:34:44.577Z,22.98
2018-04-09T12:35:44.778Z,23.10
2018-04-09T12:36:44.947Z,23.08
2018-04-09T12:37:45.109Z,23.21
2018-04-09T12:38:45.281Z,23.09
2018-04-09T12:39:45.490Z,23.18
2018-04-09T12:40:45.668Z,23.24
2018-04-09T12:41:45.835Z,23.09
2018-04-09T12:42:46.017Z,23.23
2018-04-09T12:43:46.291Z,23.28
2018-04-09T12:44:46.402Z,23.24
2018-04-09T12:45:46.557Z,23.44
2018-04-09T12:46:46.782Z,23.28
2018-04-09T12:47:46.931Z,23.24
2018-04-09T12:48:47.109Z,23.34
2018-04-09T12:49:47.386Z,22.76
2018-04-09T12:51:47.698Z,22.63
2018-04-09T12:52:47.844Z,22.38
2018-04-09T12:53:48.160Z,22.39
2018-04-09T12:54:48.330Z,22.57
2018-04-09T12:55:48.431Z,22.84
2018-04-09T12:56:48.601Z,23.00
2018-04-09T12:58:48.935Z,22.94
2018-04-09T12:59:49.102Z,22.84
2018-04-09T13:00:49.276Z,22.60
2018-04-09T13:01:49.480Z,22.54
2018-04-09T13:02:49.644Z,22.81
2018-04-09T13:03:49.804Z,23.03
2018-04-09T13:04:49.985Z,22.94
2018-04-09T13:05:50.237Z,22.96
2018-04-09T13:06:50.351Z,22.70
2018-04-09T13:07:50.517Z,22.81
2018-04-09T13:08:50.687Z,22.76
2018-04-09T13:09:50.890Z,22.78
2018-04-09T13:10:51.031Z,22.87
2018-04-09T13:11:51.199Z,22.94
2018-04-09T13:12:51.402Z,22.96
2018-04-09T13:13:51.564Z,23.02
2018-04-09T13:14:51.762Z,23.05
2018-04-09T13:15:51.929Z,23.00
2018-04-09T13:16:52.073Z,22.93